createdAt,value
2019-05-23T00:02:52.876Z,12.03
2019-05-23T00:05:44.754Z,9.70
2019-05-23T00:08:16.103Z,10.67
2019-05-23T00:10:53.823Z,14.93
2019-05-23T00:13:53.664Z,13.20
2019-05-23T00:16:24.618Z,11.10
2019-05-23T00:18:54.124Z,10.07
2019-05-23T00:21:24.004Z,11.03
2019-05-23T00:23:55.040Z,12.30
2019-05-23T00:26:26.232Z,10.40
2019-05-23T00:29:09.644Z,9.77
2019-05-23T00:31:32.600Z,14.43
2019-05-23T00:34:02.055Z,13.00
2019-05-23T00:36:32.348Z,10.00
2019-05-23T00:39:01.956Z,8.60
2019-05-23T00:41:32.911Z,11.17
2019-05-23T00:44:02.257Z,9.70
2019-05-23T00:46:31.953Z,11.30
2019-05-23T00:49:03.132Z,6.97
2019-05-23T00:51:34.213Z,13.93
2019-05-23T00:54:04.365Z,9.03
2019-05-23T00:56:35.924Z,9.33
2019-05-23T00:59:06.415Z,11.40
2019-05-23T01:01:37.907Z,9.23
2019-05-23T01:04:08.142Z,8.10
2019-05-23T01:06:38.531Z,7.93
2019-05-23T01:09:09.323Z,9.97
2019-05-23T01:11:39.049Z,7.37
2019-05-23T01:14:09.452Z,13.10
2019-05-23T01:16:39.238Z,9.63
2019-05-23T01:19:09.432Z,11.60
2019-05-23T01:21:59.508Z,5.77
2019-05-23T01:24:32.600Z,9.17
2019-05-23T01:27:03.108Z,4.33
2019-05-23T01:29:39.566Z,11.47
2019-05-23T01:32:21.017Z,6.43
2019-05-23T01:34:51.086Z,8.03
2019-05-23T01:37:21.448Z,9.17
2019-05-23T01:39:51.400Z,9.03
2019-05-23T01:42:22.360Z,8.87
2019-05-23T01:44:52.276Z,9.57
2019-05-23T01:47:23.947Z,9.17
2019-05-23T01:49:54.866Z,8.17
2019-05-23T01:52:24.533Z,9.77
2019-05-23T01:54:54.164Z,8.90
2019-05-23T01:57:25.140Z,9.23
2019-05-23T02:00:08.752Z,9.50
2019-05-23T02:02:27.580Z,8.70
2019-05-23T02:04:57.346Z,6.43
2019-05-23T02:07:29.392Z,7.23
2019-05-23T02:09:58.979Z,12.50
2019-05-23T02:12:28.251Z,9.80
2019-05-23T02:14:57.608Z,11.87
2019-05-23T02:17:27.324Z,9.70
2019-05-23T02:19:56.759Z,9.40
2019-05-23T02:22:26.799Z,10.13
2019-05-23T02:24:56.802Z,10.77
2019-05-23T02:27:26.815Z,12.90
2019-05-23T02:29:56.794Z,6.57
2019-05-23T02:32:26.319Z,9.37
2019-05-23T02:34:55.806Z,12.37
2019-05-23T02:37:43.431Z,7.83
2019-05-23T02:40:23.228Z,7.87
2019-05-23T02:42:57.778Z,8.70
2019-05-23T02:45:37.163Z,11.73
2019-05-23T02:48:11.758Z,4.83
2019-05-23T02:50:46.661Z,9.07
2019-05-23T02:53:18.189Z,8.17
2019-05-23T02:55:50.079Z,6.37
2019-05-23T02:58:25.979Z,8.83
2019-05-23T03:01:41.787Z,8.40
2019-05-23T03:04:15.607Z,10.87
2019-05-23T03:06:46.024Z,6.90
2019-05-23T03:09:20.174Z,6.73
2019-05-23T03:11:50.098Z,6.73
2019-05-23T03:14:19.887Z,5.70
2019-05-23T03:16:52.637Z,4.73
2019-05-23T03:19:45.222Z,8.73
2019-05-23T03:22:34.211Z,4.40
2019-05-23T03:25:05.828Z,5.67
2019-05-23T03:27:40.981Z,6.30
2019-05-23T03:30:14.439Z,10.70
2019-05-23T03:32:46.139Z,10.70
2019-05-23T03:35:35.005Z,9.73
2019-05-23T03:38:06.406Z,7.80
2019-05-23T03:40:36.384Z,7.60
2019-05-23T03:43:06.398Z,6.70
2019-05-23T03:45:40.378Z,6.53
2019-05-23T03:48:11.621Z,10.50
2019-05-23T03:50:42.012Z,5.80
2019-05-23T03:53:12.229Z,5.50
2019-05-23T03:55:42.663Z,6.37
2019-05-23T03:58:13.488Z,6.83
2019-05-23T04:00:49.735Z,6.93
2019-05-23T04:03:19.236Z,5.47
2019-05-23T04:05:49.244Z,4.97
2019-05-23T04:08:19.450Z,4.47
2019-05-23T04:10:51.807Z,7.97
2019-05-23T04:13:20.453Z,5.30
2019-05-23T04:15:50.524Z,5.50
2019-05-23T04:18:19.916Z,8.53
2019-05-23T04:20:49.483Z,5.70
2019-05-23T04:23:19.714Z,6.23
2019-05-23T04:25:49.540Z,6.40
2019-05-23T04:28:19.431Z,6.07
2019-05-23T04:30:49.259Z,5.57
2019-05-23T04:33:18.563Z,12.40
2019-05-23T04:35:48.388Z,5.17
2019-05-23T04:38:18.194Z,6.77
2019-05-23T04:40:47.732Z,7.30
2019-05-23T04:43:17.238Z,6.47
2019-05-23T04:45:48.030Z,5.57
2019-05-23T04:48:17.599Z,6.20
2019-05-23T04:50:47.894Z,5.10
2019-05-23T04:53:17.622Z,8.43
2019-05-23T04:55:47.455Z,4.70
2019-05-23T04:58:17.139Z,7.20
2019-05-23T05:00:46.695Z,3.57
2019-05-23T05:03:18.160Z,6.10
2019-05-23T05:05:48.151Z,9.77
2019-05-23T05:08:17.713Z,8.57
2019-05-23T05:10:47.394Z,6.63
2019-05-23T05:13:17.168Z,5.53
2019-05-23T05:15:46.617Z,5.00
2019-05-23T05:18:16.401Z,7.30
2019-05-23T05:20:46.042Z,7.73
2019-05-23T05:23:15.764Z,4.07
2019-05-23T05:25:45.091Z,4.20
2019-05-23T05:28:14.546Z,4.23
2019-05-23T05:30:44.436Z,5.13
2019-05-23T05:33:13.677Z,2.90
2019-05-23T05:35:43.723Z,2.23
2019-05-23T05:38:13.210Z,2.57
2019-05-23T05:40:42.656Z,3.67
2019-05-23T05:43:12.444Z,6.13
2019-05-23T05:45:42.473Z,4.17
2019-05-23T05:48:11.858Z,3.87
2019-05-23T05:50:41.739Z,4.10
2019-05-23T05:53:12.566Z,4.53
2019-05-23T05:55:42.109Z,5.40
2019-05-23T05:58:11.440Z,6.50
2019-05-23T06:00:54.377Z,4.20
2019-05-23T06:03:23.656Z,8.27
2019-05-23T06:06:09.323Z,3.53
2019-05-23T06:08:39.878Z,2.53
2019-05-23T06:11:09.564Z,3.73
2019-05-23T06:13:39.187Z,3.80
2019-05-23T06:16:08.603Z,4.77
2019-05-23T06:18:38.048Z,7.73
2019-05-23T06:21:08.256Z,5.00
2019-05-23T06:23:37.999Z,2.33
2019-05-23T06:26:07.333Z,2.53
2019-05-23T06:28:38.039Z,2.73
2019-05-23T06:31:08.366Z,4.17
2019-05-23T06:33:38.113Z,2.37
2019-05-23T06:36:07.737Z,6.57
2019-05-23T06:38:37.096Z,4.03
2019-05-23T06:41:07.949Z,4.00
2019-05-23T06:43:39.269Z,4.40
2019-05-23T06:46:08.771Z,3.97
2019-05-23T06:48:38.034Z,3.83
2019-05-23T06:51:07.759Z,9.20
2019-05-23T06:53:37.129Z,3.10
2019-05-23T06:56:08.294Z,6.10
2019-05-23T06:58:38.167Z,4.10
2019-05-23T07:01:07.525Z,2.93
2019-05-23T07:03:42.654Z,1.37
2019-05-23T07:06:09.323Z,1.90
2019-05-23T07:08:38.812Z,1.43
2019-05-23T07:11:08.221Z,2.33
2019-05-23T07:13:38.292Z,2.17
2019-05-23T07:16:07.578Z,3.80
2019-05-23T07:18:36.821Z,2.37
2019-05-23T07:21:06.953Z,3.93
2019-05-23T07:23:36.817Z,4.07
2019-05-23T07:26:06.147Z,2.87
2019-05-23T07:28:36.105Z,2.53
2019-05-23T07:31:06.330Z,1.27
2019-05-23T07:33:35.780Z,1.75
2019-05-23T07:36:05.556Z,1.90
2019-05-23T07:38:34.859Z,2.85
2019-05-23T07:41:04.393Z,5.33
2019-05-23T07:43:34.053Z,3.47
2019-05-23T07:46:03.742Z,3.05
2019-05-23T07:48:33.346Z,3.02
2019-05-23T07:51:03.140Z,2.90
2019-05-23T07:53:50.387Z,4.95
2019-05-23T07:56:22.974Z,2.25
2019-05-23T07:58:52.250Z,2.70
2019-05-23T08:01:24.309Z,2.47
2019-05-23T08:03:54.400Z,3.62
2019-05-23T08:06:24.120Z,2.22
2019-05-23T08:08:53.677Z,3.27
2019-05-23T08:11:23.383Z,5.03
2019-05-23T08:13:53.496Z,4.03
2019-05-23T08:16:23.712Z,1.07
2019-05-23T08:18:53.410Z,1.57
2019-05-23T08:21:22.687Z,4.97
2019-05-23T08:23:52.431Z,1.67
2019-05-23T08:26:22.810Z,3.65
2019-05-23T08:29:21.727Z,2.45
2019-05-23T08:31:24.290Z,3.30
2019-05-23T08:33:53.995Z,3.05
2019-05-23T08:36:24.053Z,2.85
2019-05-23T08:38:54.182Z,2.62
2019-05-23T08:41:24.473Z,2.58
2019-05-23T08:43:54.218Z,3.15
2019-05-23T08:46:24.363Z,1.98
2019-05-23T08:48:54.756Z,3.20
2019-05-23T08:51:24.192Z,1.33
2019-05-23T08:53:56.305Z,2.80
2019-05-23T08:56:26.052Z,2.87
2019-05-23T08:58:55.404Z,5.00
2019-05-23T09:01:25.225Z,3.10
2019-05-23T09:03:54.975Z,3.10
2019-05-23T09:06:24.357Z,2.17
2019-05-23T09:08:55.081Z,3.13
2019-05-23T09:11:24.799Z,2.30
2019-05-23T09:13:54.310Z,2.53
2019-05-23T09:16:23.753Z,3.40
2019-05-23T09:18:53.573Z,5.97
2019-05-23T09:21:22.918Z,2.60
2019-05-23T09:23:52.188Z,2.93
2019-05-23T09:26:21.476Z,4.00
2019-05-23T09:28:50.984Z,4.27
2019-05-23T09:31:22.204Z,3.23
2019-05-23T09:33:51.778Z,2.83
2019-05-23T09:36:21.139Z,3.52
2019-05-23T09:38:50.871Z,3.67
2019-05-23T09:41:20.262Z,3.27
2019-05-23T09:43:49.580Z,3.70
2019-05-23T09:46:19.240Z,4.37
2019-05-23T09:48:48.784Z,2.15
2019-05-23T09:51:18.147Z,3.00
2019-05-23T09:53:47.961Z,3.97
2019-05-23T09:56:17.379Z,2.50
2019-05-23T09:58:46.613Z,3.63
2019-05-23T10:01:18.299Z,4.20
2019-05-23T10:03:48.307Z,4.93
2019-05-23T10:06:17.632Z,3.17
2019-05-23T10:08:47.123Z,3.60
2019-05-23T10:11:16.554Z,4.83
2019-05-23T10:13:45.847Z,2.03
2019-05-23T10:16:15.423Z,3.33
2019-05-23T10:18:45.261Z,1.93
2019-05-23T10:21:14.708Z,2.12
2019-05-23T10:23:44.121Z,2.42
2019-05-23T10:26:13.864Z,4.72
2019-05-23T10:28:43.221Z,5.53
2019-05-23T10:31:14.100Z,6.28
2019-05-23T10:33:43.424Z,2.30
2019-05-23T10:36:12.738Z,3.50
2019-05-23T10:38:42.574Z,4.70
2019-05-23T10:41:12.041Z,4.30
2019-05-23T10:43:41.393Z,4.33
2019-05-23T10:46:10.933Z,2.47
2019-05-23T10:48:41.021Z,2.87
2019-05-23T10:51:10.490Z,4.87
2019-05-23T10:53:40.372Z,3.23
2019-05-23T10:56:10.052Z,3.73
2019-05-23T10:58:39.886Z,1.97
2019-05-23T11:01:09.313Z,2.53
2019-05-23T11:03:38.900Z,4.40
2019-05-23T11:06:16.156Z,7.80
2019-05-23T11:08:39.745Z,6.62
2019-05-23T11:11:14.025Z,4.17
2019-05-23T11:13:41.124Z,2.50
2019-05-23T11:16:10.956Z,3.12
2019-05-23T11:18:40.650Z,5.67
2019-05-23T11:21:10.374Z,2.20
2019-05-23T11:23:44.332Z,4.77
2019-05-23T11:26:13.808Z,4.70
2019-05-23T11:28:43.127Z,2.17
2019-05-23T11:31:14.385Z,7.00
2019-05-23T11:33:43.810Z,3.10
2019-05-23T11:36:13.648Z,3.17
2019-05-23T11:38:43.444Z,2.47
2019-05-23T11:41:13.039Z,4.77
2019-05-23T11:43:42.994Z,2.57
2019-05-23T11:46:27.991Z,2.43
2019-05-23T11:48:57.560Z,4.87
2019-05-23T11:51:27.355Z,3.23
2019-05-23T11:54:07.550Z,3.90
2019-05-23T11:56:28.578Z,3.63
2019-05-23T11:59:01.136Z,2.83
2019-05-23T12:01:37.553Z,2.73
2019-05-23T12:04:18.313Z,3.73
2019-05-23T12:07:08.943Z,2.20
2019-05-23T12:09:38.350Z,2.07
2019-05-23T12:12:07.691Z,2.20
2019-05-23T12:14:37.973Z,3.53
2019-05-23T12:17:07.560Z,3.97
2019-05-23T12:19:36.924Z,2.60
2019-05-23T12:22:06.374Z,3.63
2019-05-23T12:24:36.111Z,2.10
2019-05-23T12:27:05.889Z,3.33
2019-05-23T12:29:35.553Z,0.93
2019-05-23T12:32:06.688Z,4.53
2019-05-23T12:34:36.159Z,3.13
2019-05-23T12:37:21.294Z,0.90
2019-05-23T12:39:37.201Z,4.10
2019-05-23T12:42:06.575Z,1.63
2019-05-23T12:44:35.935Z,1.37
2019-05-23T12:47:05.877Z,0.70
2019-05-23T12:49:46.575Z,0.93
2019-05-23T12:52:16.245Z,0.73
2019-05-23T12:54:46.163Z,1.97
2019-05-23T12:57:16.021Z,1.70
2019-05-23T12:59:46.016Z,0.50
2019-05-23T13:02:20.201Z,3.03
2019-05-23T13:04:50.244Z,0.40
2019-05-23T13:07:35.082Z,1.03
2019-05-23T13:09:51.275Z,1.80
2019-05-23T13:12:20.929Z,1.63
2019-05-23T13:14:53.540Z,1.50
2019-05-23T13:17:21.425Z,0.43
2019-05-23T13:19:50.714Z,0.70
2019-05-23T13:22:20.460Z,0.93
2019-05-23T13:24:53.035Z,0.57
2019-05-23T13:27:21.232Z,1.70
2019-05-23T13:29:50.632Z,0.50
2019-05-23T13:32:20.307Z,2.00
2019-05-23T13:34:49.599Z,2.90
2019-05-23T13:37:19.088Z,1.77
2019-05-23T13:39:49.043Z,2.20
2019-05-23T13:42:18.474Z,2.20
2019-05-23T13:44:48.915Z,0.50
2019-05-23T13:47:18.403Z,1.43
2019-05-23T13:49:47.781Z,0.80
2019-05-23T13:52:17.126Z,1.93
2019-05-23T13:54:46.704Z,1.63
2019-05-23T13:57:16.472Z,1.30
2019-05-23T13:59:45.809Z,1.77
2019-05-23T14:02:20.549Z,1.47
2019-05-23T14:04:50.221Z,1.67
2019-05-23T14:07:19.997Z,1.43
2019-05-23T14:09:49.271Z,1.57
2019-05-23T14:12:21.401Z,4.23
2019-05-23T14:14:50.134Z,2.03
2019-05-23T14:17:41.644Z,1.17
2019-05-23T14:20:11.427Z,0.90
2019-05-23T14:22:45.333Z,2.77
2019-05-23T14:25:15.008Z,1.70
2019-05-23T14:27:57.730Z,1.43
2019-05-23T14:30:40.158Z,2.80
2019-05-23T14:33:20.870Z,2.90
2019-05-23T14:35:51.319Z,1.40
2019-05-23T14:38:30.221Z,1.77
2019-05-23T14:40:52.297Z,1.03
2019-05-23T14:43:24.907Z,1.47
2019-05-23T14:46:03.437Z,1.47
2019-05-23T14:48:40.237Z,2.13
2019-05-23T14:51:30.555Z,5.13
2019-05-23T14:54:18.800Z,5.73
2019-05-23T14:56:48.674Z,3.03
2019-05-23T14:59:18.301Z,2.67
2019-05-23T15:01:48.448Z,3.27
2019-05-23T15:04:18.354Z,3.87
2019-05-23T15:06:47.941Z,1.50
2019-05-23T15:09:21.074Z,3.97
2019-05-23T15:11:48.647Z,1.33
2019-05-23T15:14:17.920Z,2.87
2019-05-23T15:16:47.424Z,1.67
2019-05-23T15:19:36.458Z,3.20
2019-05-23T15:21:47.785Z,1.50
2019-05-23T15:24:17.248Z,5.10
2019-05-23T15:26:46.526Z,2.17
2019-05-23T15:29:15.903Z,5.77
2019-05-23T15:32:01.100Z,2.33
2019-05-23T15:34:16.473Z,4.50
2019-05-23T15:36:45.754Z,4.57
2019-05-23T15:39:15.616Z,3.00
2019-05-23T15:41:44.900Z,3.97
2019-05-23T15:44:25.400Z,4.40
2019-05-23T15:46:45.569Z,3.03
2019-05-23T15:49:15.469Z,7.53
2019-05-23T15:52:06.903Z,3.60
2019-05-23T15:54:44.680Z,2.13
2019-05-23T15:57:30.216Z,2.53
2019-05-23T16:00:06.374Z,4.90
2019-05-23T16:02:53.420Z,2.77
2019-05-23T16:05:23.049Z,5.03
2019-05-23T16:07:52.671Z,3.17
2019-05-23T16:10:22.611Z,4.13
2019-05-23T16:12:52.023Z,2.90
2019-05-23T16:15:21.689Z,6.57
2019-05-23T16:17:51.358Z,4.40
2019-05-23T16:20:20.672Z,5.33
2019-05-23T16:22:50.144Z,2.80
2019-05-23T16:25:19.923Z,3.47
2019-05-23T16:27:49.639Z,3.40
2019-05-23T16:30:19.128Z,3.43
2019-05-23T16:32:48.769Z,2.33
2019-05-23T16:35:18.128Z,3.33
2019-05-23T16:37:47.390Z,3.60
2019-05-23T16:40:17.279Z,7.53
2019-05-23T16:42:46.554Z,4.33
2019-05-23T16:45:15.939Z,2.83
2019-05-23T16:47:45.534Z,5.47
2019-05-23T16:50:15.167Z,3.43
2019-05-23T16:52:44.467Z,2.63
2019-05-23T16:55:20.971Z,1.77
2019-05-23T16:57:54.233Z,5.67
2019-05-23T17:00:43.026Z,4.77
2019-05-23T17:03:34.416Z,5.30
2019-05-23T17:06:26.103Z,4.57
2019-05-23T17:09:04.538Z,2.73
2019-05-23T17:11:42.844Z,5.97
2019-05-23T17:14:17.940Z,4.67
2019-05-23T17:16:53.216Z,4.57
2019-05-23T17:19:35.391Z,5.13
2019-05-23T17:22:17.619Z,3.80
2019-05-23T17:24:58.906Z,3.73
2019-05-23T17:27:53.605Z,5.40
2019-05-23T17:30:51.163Z,3.83
2019-05-23T17:33:22.306Z,4.97
2019-05-23T17:35:51.836Z,6.37
2019-05-23T17:38:21.107Z,4.50
2019-05-23T17:40:51.028Z,10.67
2019-05-23T17:43:20.313Z,8.00
2019-05-23T17:45:49.781Z,5.47
2019-05-23T17:48:19.493Z,5.10
2019-05-23T17:50:48.800Z,6.17
2019-05-23T17:53:18.492Z,4.07
2019-05-23T17:55:48.188Z,8.10
2019-05-23T17:58:18.167Z,3.83
2019-05-23T18:00:48.569Z,8.13
2019-05-23T18:03:18.710Z,5.33
2019-05-23T18:05:48.100Z,5.57
2019-05-23T18:08:17.479Z,3.33
2019-05-23T18:10:47.107Z,5.43
2019-05-23T18:13:16.879Z,3.23
2019-05-23T18:15:46.601Z,5.60
2019-05-23T18:18:16.458Z,5.60
2019-05-23T18:20:46.075Z,8.20
2019-05-23T18:23:15.815Z,8.60
2019-05-23T18:25:45.391Z,5.67
2019-05-23T18:28:15.313Z,3.53
2019-05-23T18:30:55.634Z,5.20
2019-05-23T18:33:25.318Z,4.50
2019-05-23T18:35:56.219Z,5.87
2019-05-23T18:38:26.327Z,5.53
2019-05-23T18:41:03.253Z,7.70
2019-05-23T18:43:26.967Z,3.80
2019-05-23T18:45:59.998Z,2.90
2019-05-23T18:48:29.642Z,8.70
2019-05-23T18:50:59.103Z,5.63
2019-05-23T18:53:29.784Z,4.17
2019-05-23T18:55:59.078Z,8.40
2019-05-23T18:58:28.582Z,4.50
2019-05-23T19:01:08.557Z,12.70
2019-05-23T19:03:37.921Z,7.40
2019-05-23T19:06:07.186Z,5.17
2019-05-23T19:08:37.402Z,7.83
2019-05-23T19:11:20.058Z,7.03
2019-05-23T19:13:38.075Z,4.93
2019-05-23T19:16:07.657Z,4.00
2019-05-23T19:18:37.169Z,7.47
2019-05-23T19:21:07.506Z,5.60
2019-05-23T19:23:37.826Z,4.67
2019-05-23T19:26:07.232Z,10.13
2019-05-23T19:28:36.795Z,6.00
2019-05-23T19:31:06.679Z,7.43
2019-05-23T19:33:36.259Z,6.03
2019-05-23T19:36:06.311Z,9.97
2019-05-23T19:38:36.179Z,7.13
2019-05-23T19:41:05.970Z,10.30
2019-05-23T19:43:35.682Z,7.57
2019-05-23T19:46:05.355Z,6.20
2019-05-23T19:48:34.823Z,8.27
2019-05-23T19:51:04.450Z,8.30
2019-05-23T19:53:34.389Z,7.17
2019-05-23T19:56:03.862Z,13.83
2019-05-23T19:58:33.115Z,12.10
2019-05-23T20:01:03.183Z,7.00
2019-05-23T20:03:32.943Z,8.03
2019-05-23T20:06:03.069Z,7.77
2019-05-23T20:08:32.572Z,9.00
2019-05-23T20:11:01.940Z,6.47
2019-05-23T20:13:31.229Z,13.93
2019-05-23T20:16:00.756Z,7.53
2019-05-23T20:18:30.346Z,9.07
2019-05-23T20:21:00.699Z,14.30
2019-05-23T20:23:30.500Z,14.73
2019-05-23T20:25:59.941Z,6.93
2019-05-23T20:28:29.654Z,13.63
2019-05-23T20:31:00.232Z,8.30
2019-05-23T20:33:30.057Z,8.47
2019-05-23T20:36:00.331Z,6.53
2019-05-23T20:38:30.011Z,11.67
2019-05-23T20:40:59.501Z,10.00
2019-05-23T20:43:28.859Z,11.50
2019-05-23T20:48:22.570Z,7.80
2019-05-23T20:50:51.913Z,7.50
2019-05-23T20:53:21.336Z,8.80
2019-05-23T20:55:50.889Z,9.73
2019-05-23T20:58:20.338Z,11.10
2019-05-23T21:01:11.540Z,10.13
2019-05-23T21:03:40.866Z,12.30
2019-05-23T21:06:10.732Z,11.13
2019-05-23T21:08:40.519Z,12.13
2019-05-23T21:11:09.829Z,13.87
2019-05-23T21:13:39.220Z,10.77
2019-05-23T21:16:09.376Z,11.80
2019-05-23T21:18:38.694Z,13.30
2019-05-23T21:21:08.061Z,11.33
2019-05-23T21:23:37.916Z,15.93
2019-05-23T21:26:07.353Z,14.37
2019-05-23T21:28:37.157Z,12.77
2019-05-23T21:31:12.126Z,14.13
2019-05-23T21:33:41.447Z,17.77
2019-05-23T21:36:10.716Z,14.17
2019-05-23T21:38:40.488Z,15.03
2019-05-23T21:41:09.876Z,15.13
2019-05-23T21:43:39.180Z,15.50
2019-05-23T21:46:08.803Z,16.77
2019-05-23T21:48:38.129Z,16.40
2019-05-23T21:51:07.794Z,18.33
2019-05-23T21:53:37.400Z,18.33
2019-05-23T21:56:07.074Z,17.47
2019-05-23T21:58:36.811Z,18.77
2019-05-23T22:01:31.796Z,23.67
2019-05-23T22:04:23.220Z,23.57
2019-05-23T22:06:57.913Z,19.13
2019-05-23T22:09:27.467Z,21.83
2019-05-23T22:11:57.685Z,20.90
2019-05-23T22:14:27.407Z,24.47
2019-05-23T22:16:57.055Z,22.77
2019-05-23T22:19:27.351Z,18.43
2019-05-23T22:21:56.965Z,21.20
2019-05-23T22:24:26.268Z,18.97
2019-05-23T22:26:55.701Z,20.13
2019-05-23T22:29:25.779Z,23.37
2019-05-23T22:31:56.594Z,22.17
2019-05-23T22:34:32.998Z,21.17
2019-05-23T22:37:02.903Z,23.03
2019-05-23T22:39:32.386Z,18.83
2019-05-23T22:42:01.972Z,20.93
2019-05-23T22:44:31.486Z,19.40
2019-05-23T22:47:00.828Z,18.73
2019-05-23T22:49:31.032Z,19.33
2019-05-23T22:52:00.348Z,21.77
2019-05-23T22:54:29.853Z,23.40
2019-05-23T22:56:59.565Z,18.33
2019-05-23T22:59:29.083Z,22.30
2019-05-23T23:01:58.363Z,16.40
2019-05-23T23:04:28.227Z,17.57
2019-05-23T23:06:57.721Z,14.23
2019-05-23T23:09:27.234Z,17.60
2019-05-23T23:11:56.999Z,16.73
2019-05-23T23:14:26.314Z,13.50
2019-05-23T23:16:55.665Z,13.53
2019-05-23T23:19:25.031Z,13.80
2019-05-23T23:21:54.360Z,15.80
2019-05-23T23:24:23.648Z,16.70
2019-05-23T23:26:53.343Z,17.73
2019-05-23T23:29:22.709Z,18.83
2019-05-23T23:31:52.079Z,22.57
2019-05-23T23:34:21.744Z,24.33
2019-05-23T23:36:51.033Z,22.63
2019-05-23T23:39:20.410Z,25.70
2019-05-23T23:41:50.149Z,20.30
2019-05-23T23:44:20.470Z,18.43
2019-05-23T23:47:07.977Z,23.23
2019-05-23T23:49:54.859Z,23.67
2019-05-23T23:52:42.202Z,21.40
2019-05-23T23:55:29.246Z,19.50
2019-05-23T23:58:00.605Z,22.13
